Terminal Aerodrome Forecast
Issued by NWS

Home | Current Version | Previous Version | Graphics & Text | Print | Product List | Glossary On
Versions: 1 2 3 4 5 6 7 8 9 10 11 12 13 14 15 16 17 18
000
FTUS43 KICT 241126
TAFSLN
TAF
KSLN 241126Z 2412/2512 VRB06KT P6SM VCTS SCT080 BKN150CB
     FM242000 34010KT P6SM VCTS SCT060CB
     FM250300 02008KT P6SM VCTS BKN050CB=

USA.gov is the U.S. government's official web portal to all federal, state and local government web resources and services.